Time;durP1;ratioP1;P1;durP2;ratioP2;P2;SDS_P1;SDS_P2;PMS_P1;PMS_P2;Temp;Humidity;BMP_temperature;BMP_pressure;BME280_temperature;BME280_humidity;BME280_pressure;Samples;Min_cycle;Max_cycle;Signal;HPM_P1;HPM_P2
2022/02/07 00:00:25;;;;;;;;;;;5.50;99.90;;;;;;2105711;28;20464;-73
2022/02/07 00:01:33;;;;;;;;;;;5.40;99.90;;;;;;2095500;28;19920;-73
2022/02/07 00:03:04;;;;;;;;;;;5.40;99.90;;;;;;2099119;28;19912;-74
2022/02/07 00:04:05;;;;;;;;;;;5.40;99.90;;;;;;2101933;28;19966;-73
2022/02/07 00:05:06;;;;;;;;;;;5.40;99.90;;;;;;2105229;28;19912;-73
2022/02/07 00:06:07;;;;;;;;;;;5.40;99.90;;;;;;2104101;28;19908;-72
2022/02/07 00:07:09;;;;;;;;;;;5.40;99.90;;;;;;2106674;28;19981;-73
2022/02/07 00:08:11;;;;;;;;;;;5.40;99.90;;;;;;2107156;28;19919;-73
2022/02/07 00:09:11;;;;;;;;;;;5.40;99.90;;;;;;2096350;28;19923;-73
2022/02/07 00:10:12;;;;;;;;;;;5.40;99.90;;;;;;2095174;28;19923;-73
2022/02/07 00:11:13;;;;;;;;;;;5.40;99.90;;;;;;2110904;28;19915;-73
2022/02/07 00:12:14;;;;;;;;;;;5.30;99.90;;;;;;2111505;28;19911;-73
2022/02/07 00:13:14;;;;;;;;;;;5.30;99.90;;;;;;2105213;28;19958;-72
2022/02/07 00:14:15;;;;;;;;;;;5.30;99.90;;;;;;2101769;28;19916;-72
2022/02/07 00:15:17;;;;;;;;;;;5.30;99.90;;;;;;2096591;28;19912;-73
2022/02/07 00:16:17;;;;;;;;;;;5.20;99.90;;;;;;2097398;28;19920;-73
2022/02/07 00:17:18;;;;;;;;;;;5.20;99.90;;;;;;2104779;28;19916;-73
2022/02/07 00:18:18;;;;;;;;;;;5.20;99.90;;;;;;2106466;28;19918;-72
2022/02/07 00:19:23;;;;;;;;;;;5.20;99.90;;;;;;2105697;28;19958;-73
2022/02/07 00:20:25;;;;;;;;;;;5.20;99.90;;;;;;2105408;28;20724;-72
2022/02/07 00:21:26;;;;;;;;;;;5.20;99.90;;;;;;2104729;28;20283;-73
2022/02/07 00:22:26;;;;;;;;;;;5.20;99.90;;;;;;2100954;28;19912;-73
2022/02/07 00:23:27;;;;;;;;;;;5.10;99.90;;;;;;2112403;28;19922;-72
2022/02/07 00:24:27;;;;;;;;;;;5.10;99.90;;;;;;2105963;28;20361;-72
2022/02/07 00:25:28;;;;;;;;;;;5.10;99.90;;;;;;2095461;28;19950;-72
2022/02/07 00:26:28;;;;;;;;;;;5.10;99.90;;;;;;2097367;28;20003;-73
2022/02/07 00:27:29;;;;;;;;;;;5.10;99.90;;;;;;2095407;28;20801;-72
2022/02/07 00:28:29;;;;;;;;;;;5.10;99.90;;;;;;2102603;28;20003;-72
2022/02/07 00:29:30;;;;;;;;;;;5.10;99.90;;;;;;2104407;28;19912;-72
2022/02/07 00:30:30;;;;;;;;;;;5.00;99.90;;;;;;2104372;28;19954;-72
2022/02/07 00:31:31;;;;;;;;;;;5.00;99.90;;;;;;2105572;28;19996;-72
2022/02/07 00:32:31;;;;;;;;;;;5.00;99.90;;;;;;2104185;28;19923;-73
2022/02/07 00:33:32;;;;;;;;;;;5.00;99.90;;;;;;2102971;28;19970;-72
2022/02/07 00:34:34;;;;;;;;;;;5.00;99.90;;;;;;2104596;28;19908;-72
2022/02/07 00:35:35;;;;;;;;;;;5.00;99.90;;;;;;2104039;28;19959;-72
2022/02/07 00:36:35;;;;;;;;;;;5.00;99.90;;;;;;2105790;28;19919;-72
2022/02/07 00:37:37;;;;;;;;;;;5.00;99.90;;;;;;2104784;28;19916;-72
2022/02/07 00:38:39;;;;;;;;;;;5.00;99.90;;;;;;2106243;28;19965;-72
2022/02/07 00:39:51;;;;;;;;;;;5.00;99.90;;;;;;2103150;28;19988;-72
2022/02/07 00:42:06;;;;;;;;;;;5.00;99.90;;;;;;2107019;28;19993;-72
2022/02/07 00:43:28;;;;;;;;;;;5.00;99.90;;;;;;2101257;28;20368;-72
2022/02/07 00:44:31;;;;;;;;;;;4.90;99.90;;;;;;2102973;28;19916;-72
2022/02/07 00:46:46;;;;;;;;;;;4.90;99.90;;;;;;2106117;28;19927;-72
2022/02/07 00:47:47;;;;;;;;;;;4.90;99.90;;;;;;2108167;28;19916;-72
2022/02/07 00:48:47;;;;;;;;;;;4.90;99.90;;;;;;2107933;28;19920;-72
2022/02/07 00:49:48;;;;;;;;;;;4.90;99.90;;;;;;2107585;28;19912;-72
2022/02/07 00:50:49;;;;;;;;;;;4.90;99.90;;;;;;2102906;28;20272;-72
2022/02/07 00:51:49;;;;;;;;;;;4.90;99.90;;;;;;2098259;28;20428;-72
2022/02/07 00:52:50;;;;;;;;;;;4.90;99.90;;;;;;2112618;27;20499;-72
2022/02/07 00:53:50;;;;;;;;;;;4.90;99.90;;;;;;2111330;27;19912;-72
2022/02/07 00:54:51;;;;;;;;;;;4.90;99.90;;;;;;2102676;28;20252;-72
2022/02/07 00:55:52;;;;;;;;;;;4.90;99.90;;;;;;2107545;28;19912;-71
2022/02/07 00:56:52;;;;;;;;;;;4.80;99.90;;;;;;2105106;28;19919;-72
2022/02/07 00:57:53;;;;;;;;;;;4.80;99.90;;;;;;2108132;28;19912;-72
2022/02/07 00:58:54;;;;;;;;;;;4.80;99.90;;;;;;2105132;28;19928;-72
2022/02/07 00:59:54;;;;;;;;;;;4.80;99.90;;;;;;2106753;28;19912;-72
2022/02/07 01:00:55;;;;;;;;;;;4.80;99.90;;;;;;2105878;28;19927;-72
2022/02/07 01:01:55;;;;;;;;;;;4.80;99.90;;;;;;2103493;28;19913;-72
2022/02/07 01:02:56;;;;;;;;;;;4.80;99.90;;;;;;2108922;28;19943;-72
2022/02/07 01:03:56;;;;;;;;;;;4.80;99.90;;;;;;2107809;28;19923;-72
2022/02/07 01:04:56;;;;;;;;;;;4.80;99.90;;;;;;2105646;28;19912;-72
2022/02/07 01:05:57;;;;;;;;;;;4.80;99.90;;;;;;2107649;28;20356;-72
2022/02/07 01:06:57;;;;;;;;;;;4.80;99.90;;;;;;2104355;28;19923;-72
2022/02/07 01:07:59;;;;;;;;;;;4.80;99.90;;;;;;2106604;28;19916;-72
2022/02/07 01:09:12;;;;;;;;;;;4.80;99.90;;;;;;2105341;28;20388;-72
2022/02/07 01:10:17;;;;;;;;;;;4.80;99.90;;;;;;2106349;28;20307;-72
2022/02/07 01:11:32;;;;;;;;;;;4.80;99.90;;;;;;2107883;28;19912;-72
2022/02/07 01:14:00;;;;;;;;;;;4.80;99.90;;;;;;2106196;28;19948;-72
2022/02/07 01:21:13;;;;;;;;;;;4.70;99.90;;;;;;2106872;28;20370;-72
2022/02/07 01:23:08;;;;;;;;;;;4.70;99.90;;;;;;2102762;28;19908;-72
2022/02/07 01:48:13;;;;;;;;;;;4.90;99.90;;;;;;2104403;28;20282;-73
2022/02/07 01:52:57;;;;;;;;;;;4.90;99.90;;;;;;2107475;28;20341;-72
2022/02/07 01:55:19;;;;;;;;;;;5.00;99.90;;;;;;2105535;28;19927;-72
2022/02/07 01:56:20;;;;;;;;;;;4.90;99.90;;;;;;2105415;28;19970;-72
2022/02/07 01:57:20;;;;;;;;;;;4.90;99.90;;;;;;2106059;28;19911;-73
2022/02/07 01:58:21;;;;;;;;;;;5.00;99.90;;;;;;2108797;28;19919;-72
2022/02/07 01:59:22;;;;;;;;;;;5.00;99.90;;;;;;2106304;28;20709;-73
2022/02/07 02:00:23;;;;;;;;;;;5.00;99.90;;;;;;2104972;28;19982;-72
2022/02/07 02:01:23;;;;;;;;;;;5.00;99.90;;;;;;2106817;28;20354;-72
2022/02/07 02:02:24;;;;;;;;;;;5.00;99.90;;;;;;2103807;28;19913;-73
2022/02/07 02:03:25;;;;;;;;;;;4.90;99.90;;;;;;2095428;28;20296;-73
2022/02/07 02:04:25;;;;;;;;;;;4.90;99.90;;;;;;2092546;28;19909;-73
2022/02/07 02:05:27;;;;;;;;;;;4.90;99.90;;;;;;2115942;27;19968;-73
2022/02/07 02:06:28;;;;;;;;;;;4.90;99.90;;;;;;2107598;28;19912;-72
2022/02/07 02:07:28;;;;;;;;;;;4.90;99.90;;;;;;2100493;28;20005;-72
2022/02/07 02:08:29;;;;;;;;;;;4.90;99.90;;;;;;2109627;28;19908;-72
2022/02/07 02:09:30;;;;;;;;;;;4.90;99.90;;;;;;2105180;28;19919;-72
2022/02/07 02:10:31;;;;;;;;;;;4.90;99.90;;;;;;2097612;28;19912;-72
2022/02/07 02:11:34;;;;;;;;;;;4.90;99.90;;;;;;2098902;28;19908;-72
2022/02/07 02:12:43;;;;;;;;;;;4.90;99.90;;;;;;2105001;28;19908;-72
2022/02/07 02:14:09;;;;;;;;;;;4.90;99.90;;;;;;2110709;28;19908;-72
2022/02/07 02:16:21;;;;;;;;;;;5.00;99.90;;;;;;2109352;28;19965;-73
2022/02/07 02:20:14;;;;;;;;;;;5.00;99.90;;;;;;2106489;28;19912;-72
2022/02/07 02:22:49;;;;;;;;;;;5.00;99.90;;;;;;2103860;28;19950;-73
2022/02/07 02:32:42;;;;;;;;;;;5.00;99.90;;;;;;2109519;28;20280;-73
2022/02/07 02:37:07;;;;;;;;;;;5.10;99.90;;;;;;2105889;28;20359;-72
2022/02/07 02:38:13;;;;;;;;;;;5.20;99.90;;;;;;2105667;28;19916;-73
2022/02/07 02:46:27;;;;;;;;;;;5.20;99.90;;;;;;2102898;28;19953;-73
2022/02/07 02:47:29;;;;;;;;;;;5.20;99.90;;;;;;2108192;28;19914;-73
2022/02/07 02:48:30;;;;;;;;;;;5.20;99.90;;;;;;2107244;28;19911;-73
2022/02/07 02:49:42;;;;;;;;;;;5.20;99.90;;;;;;2105620;28;19909;-73
2022/02/07 02:50:44;;;;;;;;;;;5.20;99.90;;;;;;2107295;28;19920;-73
2022/02/07 02:51:44;;;;;;;;;;;5.20;99.90;;;;;;2106450;28;19920;-72
2022/02/07 02:52:44;;;;;;;;;;;5.30;99.90;;;;;;2104211;28;19944;-73
2022/02/07 02:53:45;;;;;;;;;;;5.30;99.90;;;;;;2110175;28;19912;-72
2022/02/07 02:54:45;;;;;;;;;;;5.30;99.90;;;;;;2108894;28;20314;-72
2022/02/07 02:55:47;;;;;;;;;;;5.30;99.90;;;;;;2109041;28;19916;-72
2022/02/07 02:56:48;;;;;;;;;;;5.30;99.90;;;;;;2095558;28;19948;-72
2022/02/07 02:57:48;;;;;;;;;;;5.30;99.90;;;;;;2098849;28;19923;-72
2022/02/07 02:58:49;;;;;;;;;;;5.30;99.90;;;;;;2104578;28;20392;-72
2022/02/07 02:59:50;;;;;;;;;;;5.30;99.90;;;;;;2107095;28;20348;-73
2022/02/07 03:00:51;;;;;;;;;;;5.30;99.90;;;;;;2104787;28;19930;-72
2022/02/07 03:01:51;;;;;;;;;;;5.30;99.90;;;;;;2108968;28;19920;-72
2022/02/07 03:02:52;;;;;;;;;;;5.30;99.90;;;;;;2100060;28;20375;-72
2022/02/07 03:03:52;;;;;;;;;;;5.30;99.90;;;;;;2099945;28;19912;-72
2022/02/07 03:04:53;;;;;;;;;;;5.30;99.90;;;;;;2098744;28;19920;-72
2022/02/07 03:05:53;;;;;;;;;;;5.30;99.90;;;;;;2098326;28;19918;-72
2022/02/07 03:06:54;;;;;;;;;;;5.30;99.90;;;;;;2105000;28;20315;-72
2022/02/07 03:07:54;;;;;;;;;;;5.30;99.90;;;;;;2096921;28;19924;-72
2022/02/07 03:08:55;;;;;;;;;;;5.30;99.90;;;;;;2097568;28;19962;-72
2022/02/07 03:09:58;;;;;;;;;;;5.30;99.90;;;;;;2106930;28;20360;-72
2022/02/07 03:11:05;;;;;;;;;;;5.40;99.90;;;;;;2104782;28;19912;-72
2022/02/07 03:12:06;;;;;;;;;;;5.40;99.90;;;;;;2106222;28;20006;-72
2022/02/07 03:13:14;;;;;;;;;;;5.40;99.90;;;;;;2107603;28;19912;-72
2022/02/07 03:14:21;;;;;;;;;;;5.40;99.90;;;;;;2104787;28;19907;-72
2022/02/07 03:16:41;;;;;;;;;;;5.40;99.90;;;;;;2105835;28;19912;-72
2022/02/07 03:17:41;;;;;;;;;;;5.30;99.90;;;;;;2098825;28;19908;-72
2022/02/07 03:18:42;;;;;;;;;;;5.30;99.90;;;;;;2110311;28;19943;-72
2022/02/07 03:19:42;;;;;;;;;;;5.30;99.90;;;;;;2115723;28;20359;-72
2022/02/07 03:20:43;;;;;;;;;;;5.30;99.90;;;;;;2107228;28;19916;-72
2022/02/07 03:21:43;;;;;;;;;;;5.30;99.90;;;;;;2107566;28;19947;-72
2022/02/07 03:22:44;;;;;;;;;;;5.30;99.90;;;;;;2106483;28;19912;-72
2022/02/07 03:23:44;;;;;;;;;;;5.30;99.90;;;;;;2104684;28;19923;-72
2022/02/07 03:24:45;;;;;;;;;;;5.30;99.90;;;;;;2110509;28;20044;-72
2022/02/07 03:25:45;;;;;;;;;;;5.30;99.90;;;;;;2107224;28;19908;-72
2022/02/07 03:26:46;;;;;;;;;;;5.30;99.90;;;;;;2107905;28;19965;-72
2022/02/07 03:27:46;;;;;;;;;;;5.30;99.90;;;;;;2107034;28;19914;-72
2022/02/07 03:28:48;;;;;;;;;;;5.30;99.90;;;;;;2098462;28;19954;-72
2022/02/07 03:29:48;;;;;;;;;;;5.30;99.90;;;;;;2094540;28;19916;-72
2022/02/07 03:30:49;;;;;;;;;;;5.30;99.90;;;;;;2106868;28;20352;-73
2022/02/07 03:31:49;;;;;;;;;;;5.30;99.90;;;;;;2107174;28;19962;-72
2022/02/07 03:32:50;;;;;;;;;;;5.30;99.90;;;;;;2097304;28;19954;-72
2022/02/07 03:33:50;;;;;;;;;;;5.30;99.90;;;;;;2093657;28;20319;-72
2022/02/07 03:34:51;;;;;;;;;;;5.30;99.90;;;;;;2106039;28;19908;-72
2022/02/07 03:35:51;;;;;;;;;;;5.30;99.90;;;;;;2108090;28;19912;-72
2022/02/07 03:36:52;;;;;;;;;;;5.30;99.90;;;;;;2107593;28;19916;-72
2022/02/07 03:37:52;;;;;;;;;;;5.30;99.90;;;;;;2097405;28;20003;-72
2022/02/07 03:38:52;;;;;;;;;;;5.30;99.90;;;;;;2095320;28;20387;-72
2022/02/07 03:39:53;;;;;;;;;;;5.30;99.90;;;;;;2100957;28;19908;-72
2022/02/07 03:40:53;;;;;;;;;;;5.30;99.90;;;;;;2097701;28;19995;-72
2022/02/07 03:41:54;;;;;;;;;;;5.30;99.90;;;;;;2100328;28;19919;-72
2022/02/07 03:42:54;;;;;;;;;;;5.30;99.90;;;;;;2108879;28;19918;-72
2022/02/07 03:43:55;;;;;;;;;;;5.30;99.90;;;;;;2104634;28;19912;-72
2022/02/07 03:44:55;;;;;;;;;;;5.30;99.90;;;;;;2105065;28;20360;-72
2022/02/07 03:45:56;;;;;;;;;;;5.30;99.90;;;;;;2097266;28;19995;-72
2022/02/07 03:46:56;;;;;;;;;;;5.30;99.90;;;;;;2095836;28;19917;-72
2022/02/07 03:47:57;;;;;;;;;;;5.30;99.90;;;;;;2103718;28;19935;-72
2022/02/07 03:48:57;;;;;;;;;;;5.30;99.90;;;;;;2108555;28;19908;-72
2022/02/07 03:49:58;;;;;;;;;;;5.30;99.90;;;;;;2108944;28;19918;-73
2022/02/07 03:50:59;;;;;;;;;;;5.30;99.90;;;;;;2107966;28;19982;-72
2022/02/07 03:51:59;;;;;;;;;;;5.30;99.90;;;;;;2105457;28;19962;-72
2022/02/07 03:53:00;;;;;;;;;;;5.30;99.90;;;;;;2105920;28;19909;-72
2022/02/07 03:54:00;;;;;;;;;;;5.30;99.90;;;;;;2106643;28;19919;-72
2022/02/07 03:55:01;;;;;;;;;;;5.30;99.90;;;;;;2106232;28;20448;-72
2022/02/07 03:56:02;;;;;;;;;;;5.30;99.90;;;;;;2104166;28;19920;-72
2022/02/07 03:57:02;;;;;;;;;;;5.30;99.90;;;;;;2107946;28;19943;-72
2022/02/07 03:58:03;;;;;;;;;;;5.30;99.90;;;;;;2106228;28;20054;-72
2022/02/07 03:59:03;;;;;;;;;;;5.30;99.90;;;;;;2108597;28;19943;-72
2022/02/07 04:00:05;;;;;;;;;;;5.30;99.90;;;;;;2107951;28;20348;-72
2022/02/07 04:01:06;;;;;;;;;;;5.30;99.90;;;;;;2106939;28;20288;-72
2022/02/07 04:02:06;;;;;;;;;;;5.30;99.90;;;;;;2102653;28;19939;-72
2022/02/07 04:03:09;;;;;;;;;;;5.30;99.90;;;;;;2101325;28;19912;-72
2022/02/07 04:04:10;;;;;;;;;;;5.30;99.90;;;;;;2102134;28;19913;-72
2022/02/07 04:06:30;;;;;;;;;;;5.30;99.90;;;;;;2111836;28;19920;-72
2022/02/07 04:07:31;;;;;;;;;;;5.30;99.90;;;;;;2107294;28;19912;-72
2022/02/07 04:08:35;;;;;;;;;;;5.30;99.90;;;;;;2105348;28;20002;-72
2022/02/07 04:09:42;;;;;;;;;;;5.30;99.90;;;;;;2101165;28;20376;-72
2022/02/07 04:10:55;;;;;;;;;;;5.30;99.90;;;;;;2093298;28;19917;-72
2022/02/07 04:12:03;;;;;;;;;;;5.30;99.90;;;;;;2098388;28;19920;-72
2022/02/07 04:13:06;;;;;;;;;;;5.30;99.90;;;;;;2106658;28;19951;-72
2022/02/07 04:14:06;;;;;;;;;;;5.30;99.90;;;;;;2098667;28;19915;-72
2022/02/07 04:15:13;;;;;;;;;;;5.20;99.90;;;;;;2098124;28;19912;-72
2022/02/07 04:16:14;;;;;;;;;;;5.30;99.90;;;;;;2104621;28;19908;-72
2022/02/07 04:17:20;;;;;;;;;;;5.30;99.90;;;;;;2103112;28;19908;-72
2022/02/07 04:18:22;;;;;;;;;;;5.20;99.90;;;;;;2105546;28;19915;-72
2022/02/07 04:19:30;;;;;;;;;;;5.20;99.90;;;;;;2102781;28;19916;-72
2022/02/07 04:20:31;;;;;;;;;;;5.20;99.90;;;;;;2105785;28;19978;-72
2022/02/07 04:21:32;;;;;;;;;;;5.20;99.90;;;;;;2105582;28;19913;-72
2022/02/07 04:22:32;;;;;;;;;;;5.20;99.90;;;;;;2104472;28;19923;-72
2022/02/07 04:23:33;;;;;;;;;;;5.20;99.90;;;;;;2105899;28;19912;-72
2022/02/07 04:24:33;;;;;;;;;;;5.20;99.90;;;;;;2106235;28;19953;-72
2022/02/07 04:25:34;;;;;;;;;;;5.20;99.90;;;;;;2105006;28;19969;-72
2022/02/07 04:26:34;;;;;;;;;;;5.20;99.90;;;;;;2105367;28;20847;-72
2022/02/07 04:27:35;;;;;;;;;;;5.20;99.90;;;;;;2102826;28;20541;-72
2022/02/07 04:28:35;;;;;;;;;;;5.20;99.90;;;;;;2108085;28;20020;-72
2022/02/07 04:29:37;;;;;;;;;;;5.20;99.90;;;;;;2100444;28;19958;-72
2022/02/07 04:30:37;;;;;;;;;;;5.20;99.90;;;;;;2098194;28;19996;-71
2022/02/07 04:31:38;;;;;;;;;;;5.10;99.90;;;;;;2103593;28;19912;-72
2022/02/07 04:32:39;;;;;;;;;;;5.10;99.90;;;;;;2104861;28;19916;-72
2022/02/07 04:33:39;;;;;;;;;;;5.20;99.90;;;;;;2104708;28;20482;-72
2022/02/07 04:34:40;;;;;;;;;;;5.10;99.90;;;;;;2103628;28;19912;-72
2022/02/07 04:35:40;;;;;;;;;;;5.10;99.90;;;;;;2105040;28;20026;-73
2022/02/07 04:36:45;;;;;;;;;;;5.10;99.90;;;;;;2105373;28;19908;-72
2022/02/07 04:37:45;;;;;;;;;;;5.10;99.90;;;;;;2104858;28;19912;-72
2022/02/07 04:38:46;;;;;;;;;;;5.10;99.90;;;;;;2104723;28;20360;-72
2022/02/07 04:39:46;;;;;;;;;;;5.10;99.90;;;;;;2106779;28;19912;-72
2022/02/07 04:40:47;;;;;;;;;;;5.10;99.90;;;;;;2103912;28;19917;-72
2022/02/07 04:41:47;;;;;;;;;;;5.10;99.90;;;;;;2107087;28;19908;-72
2022/02/07 04:42:48;;;;;;;;;;;5.10;99.90;;;;;;2103094;28;20027;-72
2022/02/07 04:44:00;;;;;;;;;;;5.20;99.90;;;;;;2106742;28;20024;-72
2022/02/07 04:46:22;;;;;;;;;;;5.10;99.90;;;;;;2107302;28;19914;-72
2022/02/07 04:49:01;;;;;;;;;;;5.10;99.90;;;;;;2103814;28;19909;-72
2022/02/07 04:50:34;;;;;;;;;;;5.10;99.90;;;;;;2105113;28;19916;-72
2022/02/07 04:51:52;;;;;;;;;;;5.10;99.90;;;;;;2104923;28;19920;-72
2022/02/07 04:57:00;;;;;;;;;;;5.10;99.90;;;;;;2104218;28;19913;-72
2022/02/07 04:58:57;;;;;;;;;;;5.20;99.90;;;;;;2104791;28;19912;-72
2022/02/07 05:00:23;;;;;;;;;;;5.20;99.90;;;;;;2108896;28;19912;-72
2022/02/07 05:02:15;;;;;;;;;;;5.20;99.90;;;;;;2096867;28;19912;-72
2022/02/07 05:02:59;;;;;;;;;;;5.20;99.90;;;;;;2095814;28;19987;-72
2022/02/07 05:04:07;;;;;;;;;;;5.20;99.90;;;;;;2102559;28;19920;-72
2022/02/07 05:05:30;;;;;;;;;;;5.20;99.90;;;;;;2101951;28;19912;-72
2022/02/07 05:14:27;;;;;;;;;;;5.20;99.90;;;;;;2102777;28;19908;-72
2022/02/07 05:15:27;;;;;;;;;;;5.20;99.90;;;;;;2104082;28;20007;-72
2022/02/07 05:16:30;;;;;;;;;;;5.20;99.90;;;;;;2109168;28;19907;-72
2022/02/07 05:17:32;;;;;;;;;;;5.20;99.90;;;;;;2105886;28;19915;-72
2022/02/07 05:18:32;;;;;;;;;;;5.20;99.90;;;;;;2106903;28;20022;-72
2022/02/07 05:19:33;;;;;;;;;;;5.20;99.90;;;;;;2107089;28;19998;-72
2022/02/07 05:20:33;;;;;;;;;;;5.20;99.90;;;;;;2106107;28;19981;-72
2022/02/07 05:21:34;;;;;;;;;;;5.30;99.90;;;;;;2097208;28;19919;-72
2022/02/07 05:22:35;;;;;;;;;;;5.30;99.90;;;;;;2096827;28;20388;-72
2022/02/07 05:23:35;;;;;;;;;;;5.30;99.90;;;;;;2110203;28;19911;-72
2022/02/07 05:24:36;;;;;;;;;;;5.30;99.90;;;;;;2108427;28;20356;-72
2022/02/07 05:25:36;;;;;;;;;;;5.20;99.90;;;;;;2103014;28;19915;-72
2022/02/07 05:26:36;;;;;;;;;;;5.30;99.90;;;;;;2103551;28;20253;-72
2022/02/07 05:27:37;;;;;;;;;;;5.30;99.90;;;;;;2099455;28;19909;-72
2022/02/07 05:28:37;;;;;;;;;;;5.30;99.90;;;;;;2104254;28;19955;-72
2022/02/07 05:29:38;;;;;;;;;;;5.30;99.90;;;;;;2105351;28;20014;-72
2022/02/07 05:30:38;;;;;;;;;;;5.30;99.90;;;;;;2102353;28;19979;-72
2022/02/07 05:31:39;;;;;;;;;;;5.30;99.90;;;;;;2105092;28;19919;-72
2022/02/07 05:32:39;;;;;;;;;;;5.30;99.90;;;;;;2108703;28;20314;-72
2022/02/07 05:33:40;;;;;;;;;;;5.30;99.90;;;;;;2108266;28;19977;-72
2022/02/07 05:34:40;;;;;;;;;;;5.30;99.90;;;;;;2104724;28;19935;-72
2022/02/07 05:35:40;;;;;;;;;;;5.30;99.90;;;;;;2103049;28;19958;-72
2022/02/07 05:36:44;;;;;;;;;;;5.30;99.90;;;;;;2104840;28;19919;-72
2022/02/07 05:37:44;;;;;;;;;;;5.30;99.90;;;;;;2104952;28;19918;-72
2022/02/07 05:38:49;;;;;;;;;;;5.30;99.90;;;;;;2105456;28;20344;-72
2022/02/07 05:39:54;;;;;;;;;;;5.30;99.90;;;;;;2106420;28;20073;-72
2022/02/07 05:40:59;;;;;;;;;;;5.30;99.90;;;;;;2099835;28;19916;-72
2022/02/07 05:42:05;;;;;;;;;;;5.30;99.90;;;;;;2103326;28;19934;-72
2022/02/07 05:43:07;;;;;;;;;;;5.40;99.90;;;;;;2104251;28;19908;-72
2022/02/07 05:44:08;;;;;;;;;;;5.40;99.90;;;;;;2104218;28;20057;-72
2022/02/07 05:45:08;;;;;;;;;;;5.30;99.90;;;;;;2100891;28;19932;-72
2022/02/07 05:46:09;;;;;;;;;;;5.40;99.90;;;;;;2104377;28;20348;-72
2022/02/07 05:47:09;;;;;;;;;;;5.40;99.90;;;;;;2103976;28;19980;-72
2022/02/07 05:48:10;;;;;;;;;;;5.40;99.90;;;;;;2103007;28;20088;-72
2022/02/07 05:49:11;;;;;;;;;;;5.30;99.90;;;;;;2105414;28;19916;-72
2022/02/07 05:50:11;;;;;;;;;;;5.30;99.90;;;;;;2106278;28;19908;-72
2022/02/07 05:51:12;;;;;;;;;;;5.40;99.90;;;;;;2103301;28;19912;-72
2022/02/07 05:52:12;;;;;;;;;;;5.40;99.90;;;;;;2104503;28;19962;-72
2022/02/07 05:53:13;;;;;;;;;;;5.40;99.90;;;;;;2099737;28;20417;-72
2022/02/07 05:54:13;;;;;;;;;;;5.40;99.90;;;;;;2109776;28;19916;-72
2022/02/07 05:55:15;;;;;;;;;;;5.40;99.90;;;;;;2110482;28;19922;-72
2022/02/07 05:56:15;;;;;;;;;;;5.40;99.90;;;;;;2102136;28;20006;-72
2022/02/07 05:57:16;;;;;;;;;;;5.40;99.90;;;;;;2100861;28;19912;-72
2022/02/07 05:58:16;;;;;;;;;;;5.40;99.90;;;;;;2101401;28;20003;-72
2022/02/07 05:59:16;;;;;;;;;;;5.40;99.90;;;;;;2099281;28;19912;-72
2022/02/07 06:00:17;;;;;;;;;;;5.40;99.90;;;;;;2097317;28;19983;-72
2022/02/07 06:01:17;;;;;;;;;;;5.40;99.90;;;;;;2096273;28;19916;-72
2022/02/07 06:02:18;;;;;;;;;;;5.40;99.90;;;;;;2099557;28;19915;-72
2022/02/07 06:03:18;;;;;;;;;;;5.40;99.90;;;;;;2108688;28;19951;-72
2022/02/07 06:04:19;;;;;;;;;;;5.40;99.90;;;;;;2109074;27;20380;-72
2022/02/07 06:05:19;;;;;;;;;;;5.40;99.90;;;;;;2097982;28;20011;-72
2022/02/07 06:06:20;;;;;;;;;;;5.40;99.90;;;;;;2095971;28;19951;-72
2022/02/07 06:07:20;;;;;;;;;;;5.40;99.90;;;;;;2095695;28;19916;-72
2022/02/07 06:08:20;;;;;;;;;;;5.40;99.90;;;;;;2107026;28;20374;-72
2022/02/07 06:09:21;;;;;;;;;;;5.50;99.90;;;;;;2105140;28;19923;-72
2022/02/07 06:10:21;;;;;;;;;;;5.40;99.90;;;;;;2103502;28;19912;-72
2022/02/07 06:11:22;;;;;;;;;;;5.50;99.90;;;;;;2104122;28;20418;-72
2022/02/07 06:12:22;;;;;;;;;;;5.50;99.90;;;;;;2101392;28;20374;-72
2022/02/07 06:13:23;;;;;;;;;;;5.50;99.90;;;;;;2106685;28;19908;-72
2022/02/07 06:14:23;;;;;;;;;;;5.50;99.90;;;;;;2101243;28;19912;-72
2022/02/07 06:15:24;;;;;;;;;;;5.50;99.90;;;;;;2100680;28;19953;-72
2022/02/07 06:16:25;;;;;;;;;;;5.50;99.90;;;;;;2101398;28;19920;-72
2022/02/07 06:17:25;;;;;;;;;;;5.50;99.90;;;;;;2101983;28;19912;-72
2022/02/07 06:18:26;;;;;;;;;;;5.40;99.90;;;;;;2102722;28;19908;-72
2022/02/07 06:19:27;;;;;;;;;;;5.50;99.90;;;;;;2106518;28;20336;-72
2022/02/07 06:20:29;;;;;;;;;;;5.40;99.90;;;;;;2104347;28;19978;-72
2022/02/07 06:21:32;;;;;;;;;;;5.50;99.90;;;;;;2102915;28;19919;-72
2022/02/07 06:22:32;;;;;;;;;;;5.40;99.90;;;;;;2104115;28;20379;-72
2022/02/07 06:23:33;;;;;;;;;;;5.50;99.90;;;;;;2100518;28;20261;-72
2022/02/07 06:24:33;;;;;;;;;;;5.50;99.90;;;;;;2103287;28;20017;-72
2022/02/07 06:25:34;;;;;;;;;;;5.40;99.90;;;;;;2103909;28;19926;-72
2022/02/07 06:26:35;;;;;;;;;;;5.50;99.90;;;;;;2105817;28;20256;-72
2022/02/07 06:27:35;;;;;;;;;;;5.50;99.90;;;;;;2100804;28;20273;-72
2022/02/07 06:28:35;;;;;;;;;;;5.50;99.90;;;;;;2102715;28;20385;-72
2022/02/07 06:29:36;;;;;;;;;;;5.50;99.90;;;;;;2101881;28;19948;-72
2022/02/07 06:30:37;;;;;;;;;;;5.40;99.90;;;;;;2105017;28;19958;-73
2022/02/07 06:31:37;;;;;;;;;;;5.40;99.90;;;;;;2102126;28;19962;-72
2022/02/07 06:32:38;;;;;;;;;;;5.40;99.90;;;;;;2104434;28;19908;-72
2022/02/07 06:33:39;;;;;;;;;;;5.40;99.90;;;;;;2101692;28;19912;-72
2022/02/07 06:34:40;;;;;;;;;;;5.40;99.90;;;;;;2101110;28;20417;-73
2022/02/07 06:35:40;;;;;;;;;;;5.40;99.90;;;;;;2103025;28;19995;-72
2022/02/07 06:36:40;;;;;;;;;;;5.40;99.90;;;;;;2102223;28;20327;-72
2022/02/07 06:37:41;;;;;;;;;;;5.40;99.90;;;;;;2100132;28;20407;-72
2022/02/07 06:38:41;;;;;;;;;;;5.40;99.90;;;;;;2110327;28;19915;-72
2022/02/07 06:39:42;;;;;;;;;;;5.40;99.90;;;;;;2109506;28;19907;-72
2022/02/07 06:40:42;;;;;;;;;;;5.40;99.90;;;;;;2098013;28;20653;-72
2022/02/07 06:41:43;;;;;;;;;;;5.40;99.90;;;;;;2101153;28;19991;-72
2022/02/07 06:42:43;;;;;;;;;;;5.40;99.90;;;;;;2106269;28;19908;-72
2022/02/07 06:43:44;;;;;;;;;;;5.40;99.90;;;;;;2103231;28;20386;-72
2022/02/07 06:44:44;;;;;;;;;;;5.40;99.90;;;;;;2094474;28;20003;-72
2022/02/07 06:45:45;;;;;;;;;;;5.40;99.90;;;;;;2093524;28;19959;-72
2022/02/07 06:46:45;;;;;;;;;;;5.40;99.90;;;;;;2099550;28;19920;-72
2022/02/07 06:47:46;;;;;;;;;;;5.40;99.90;;;;;;2111519;28;19933;-72
2022/02/07 06:48:46;;;;;;;;;;;5.40;99.90;;;;;;2106998;28;20568;-72
2022/02/07 06:49:47;;;;;;;;;;;5.40;99.90;;;;;;2101870;28;19908;-72
2022/02/07 06:50:47;;;;;;;;;;;5.40;99.90;;;;;;2101822;28;19920;-72
2022/02/07 06:51:48;;;;;;;;;;;5.40;99.90;;;;;;2103839;28;19920;-73
2022/02/07 06:52:48;;;;;;;;;;;5.40;99.90;;;;;;2099106;28;20547;-72
2022/02/07 06:53:49;;;;;;;;;;;5.40;99.90;;;;;;2100380;28;19944;-72
2022/02/07 06:54:49;;;;;;;;;;;5.40;99.90;;;;;;2099064;28;19912;-72
2022/02/07 06:55:50;;;;;;;;;;;5.40;99.90;;;;;;2100053;28;19914;-73
2022/02/07 06:56:52;;;;;;;;;;;5.40;99.90;;;;;;2099605;28;19934;-72
2022/02/07 06:57:52;;;;;;;;;;;5.40;99.90;;;;;;2100300;28;19912;-72
2022/02/07 06:58:53;;;;;;;;;;;5.40;99.90;;;;;;2098771;28;20336;-72
2022/02/07 06:59:54;;;;;;;;;;;5.50;99.90;;;;;;2099125;28;19912;-72
2022/02/07 07:00:54;;;;;;;;;;;5.50;99.90;;;;;;2101879;28;19916;-72
2022/02/07 07:01:55;;;;;;;;;;;5.40;99.90;;;;;;2106736;28;19915;-72
2022/02/07 07:02:55;;;;;;;;;;;5.50;99.90;;;;;;2109728;28;19960;-72
2022/02/07 07:03:56;;;;;;;;;;;5.50;99.90;;;;;;2099876;28;19912;-72
2022/02/07 07:04:58;;;;;;;;;;;5.50;99.90;;;;;;2095111;28;19916;-72
2022/02/07 07:05:58;;;;;;;;;;;5.50;99.90;;;;;;2093822;28;19913;-72
2022/02/07 07:06:59;;;;;;;;;;;5.50;99.90;;;;;;2104618;28;19912;-73
2022/02/07 07:08:00;;;;;;;;;;;5.50;99.90;;;;;;2103696;28;20303;-73
2022/02/07 07:09:00;;;;;;;;;;;5.50;99.90;;;;;;2104522;28;19912;-73
2022/02/07 07:10:01;;;;;;;;;;;5.50;99.90;;;;;;2102543;28;19948;-72
2022/02/07 07:11:03;;;;;;;;;;;5.50;99.90;;;;;;2105571;28;19912;-72
2022/02/07 07:12:06;;;;;;;;;;;5.50;99.90;;;;;;2105737;28;20007;-72
2022/02/07 07:13:13;;;;;;;;;;;5.50;99.90;;;;;;2103526;28;19908;-72
2022/02/07 07:14:17;;;;;;;;;;;5.60;99.90;;;;;;2095587;28;19912;-72
2022/02/07 07:15:28;;;;;;;;;;;5.60;99.90;;;;;;2097193;28;19990;-72
2022/02/07 07:17:29;;;;;;;;;;;5.60;99.90;;;;;;2101677;28;19909;-72
2022/02/07 07:18:29;;;;;;;;;;;5.50;99.90;;;;;;2103526;28;19953;-72
2022/02/07 07:19:30;;;;;;;;;;;5.60;99.90;;;;;;2111501;28;19908;-72
2022/02/07 07:20:30;;;;;;;;;;;5.60;99.90;;;;;;2105309;28;20668;-72
2022/02/07 07:21:32;;;;;;;;;;;5.50;99.90;;;;;;2095812;28;19912;-72
2022/02/07 07:22:33;;;;;;;;;;;5.50;99.90;;;;;;2103924;28;19938;-72
2022/02/07 07:23:36;;;;;;;;;;;5.50;99.90;;;;;;2103730;28;19995;-72
2022/02/07 07:24:37;;;;;;;;;;;5.50;99.90;;;;;;2111178;28;19915;-72
2022/02/07 07:25:39;;;;;;;;;;;5.60;99.90;;;;;;2113077;28;19946;-72
2022/02/07 07:26:40;;;;;;;;;;;5.60;99.90;;;;;;2106068;28;19912;-72
2022/02/07 07:27:56;;;;;;;;;;;5.60;99.90;;;;;;2105686;28;19912;-72
2022/02/07 07:28:58;;;;;;;;;;;5.50;99.90;;;;;;2110685;28;19915;-72
2022/02/07 07:29:58;;;;;;;;;;;5.50;99.90;;;;;;2109862;28;19908;-72
2022/02/07 07:31:00;;;;;;;;;;;5.50;99.90;;;;;;2101178;28;19961;-72